Borovany, República Checa

4:48 PM CEST en Julio 27, 2017 (GMT +0200)
Příčná | | Change Station

Alt 1742 ft 48.95 °N, 14.54 °E | Updated 7 minutes ago

Nublado
Nublado
69.3 ° F
Sensación térmica 69.3 ° F
N
7.5
Viento Variable Viento desde Oeste
Gusts 13.0 mph

Hoy
Alta -- | Baja -- ° F
--% Posibilidad de precipitaciones
Ayer
Alta -- | Baja -- ° F
Precip. -- pul
Presión 29.86 pul
Visibilidad 6.2 Millas
Nubes Baja 1800 ft
Nubes dispersas 3200 ft
Muy nublado 4500 ft
Punto de rocío 56 ° F
Humedad 62%
Precipitaciones 0.23 pul
Espesor de la nieve No disponible.
5:28 AM 8:47 PM
Creciente, 21% visible
METAR LOWL 271420Z 28009KT 9999 FEW018 SCT032 BKN045 20/13 Q1011 NOSIG
Presión 29.86 pul
Visibilidad 6.2 Millas
Nubes Baja 1800 ft
Nubes dispersas 3200 ft
Muy nublado 4500 ft
Punto de rocío 56 ° F
Humedad 62%
Precipitaciones 0.23 pul
Espesor de la nieve No disponible.
5:28 AM 8:47 PM
Creciente, 21% visible
METAR LOWL 271420Z 28009KT 9999 FEW018 SCT032 BKN045 20/13 Q1011 NOSIG

Get Severe Weather Alerts

Thanks for signing up!

Be on the lookout for a verification email in your inbox.

You'll start receiving the daily forecast at 6 AM.

×

10-Day Weather Forecast

×

Almanac

Astronomía

Jul. 27, 2017 Salida Puesta
Hora real
Crepúsculo civil
Crepúsculo náutico
Crepúsculo astronómico
Luna
Horas de luz
Horas de luz
Tomorrow will be .
, % of the Moon is Illuminated

Extremos de hoy

Máximos del país Bajas del país

Community

WunderPhotos

Category 6

Welcome to Category 6. This is the collective home for Weather Underground's featured writeups by Dr. Jeff Masters (right), Bob Henson (left), Chris Burt, and other regular contributors.

Nearby

Calidad del aire

  Calidad del aire Índice AQ Contaminante
Not available.

Grosos de nieve

Estación Profundido Altura

Actividad de terremotos

Ciudad Distance Mag. Tiempo y dato
Magnitud mínima muestra es 2,5.

Temperaturas de aguas costeras

Lugar Temperatura

Stations

Estaciones meteorológicas cercanas

Ubicación de la estación Temp. Vientos helados Punto de rocío Humedad Viento Precip. Alt Actualizado Tipo